Nearby METAR Reports

 

EDNY - Friedrichshafen, Germany
Distance from station: O 31km
aktuell: 19.12.2014 23:20
sehr leichter Niederschlag, geschlossene Wolkendecke
sehr leichter Niederschlag, geschlossene Wolkendecke
 Wind von WSW
Wind: WSW 19 km/h
Temperatur: 9°C
gefühlte Temperatur: 6°C
Taupunkt: 6°C
Luftfeuchte: 82%
Luftdruck: 1023 hPa
Zusammenfassung: sehr leichter Niederschlag
Clouds: geschlossene Wolkendecke
Visibility: 10 km
Cloud details: stark bewölkt 366 m
geschlossene Wolkendecke 549 m
2014/12/19 22:20 EDNY 192220Z AUTO 24010KT 9999 -RA BKN012 OVC018 09/06 Q1023 RERA
LSZR - Rheineck/Altenrh, Switzerland
Distance from station: SO 42km
aktuell: 19.12.2014 23:20
sehr leichter Niederschlag, Showers, stark bewölkt
sehr leichter Niederschlag, Showers, stark bewölkt
 Wind von SW
Wind: SW 19 km/h
Temperatur: 10°C
gefühlte Temperatur: 7°C
Taupunkt: 7°C
Luftfeuchte: 82%
Luftdruck: 1022 hPa
Zusammenfassung: sehr leichter Niederschlag, Showers
Clouds: stark bewölkt
Visibility: 10 km
Cloud details: Few Clouds 1280 m
stark bewölkt 1524 m
2014/12/19 22:20 LSZR 192220Z AUTO 23010KT 190V270 9999 -SHRA FEW042 BKN050 10/07 Q1022
LSZH - Zurich-Kloten (a, Switzerland
Distance from station: WSW 49km
aktuell: 19.12.2014 23:20
Rain showers, stark bewölkt
Rain showers, stark bewölkt
 Wind von SW
Wind: SW 22 km/h
Temperatur: 9°C
gefühlte Temperatur: 6°C
Taupunkt: 8°C
Luftfeuchte: 94%
Luftdruck: 1024 hPa
Zusammenfassung: Rain Showers
Clouds: stark bewölkt
Visibility: 8 km
Cloud details: Few Clouds 274 m
teilweise bewölkt 396 m
stark bewölkt 610 m
2014/12/19 22:20 LSZH 192220Z 22012KT 160V240 8000 SHRA FEW009 SCT013 BKN020 09/08 Q1024 WS ALL RWY TEMPO 4000 BKN013
 
EDTD - Donaueschingen, Germany
Distance from station: NW 53km
aktuell: 30.04.2014 18:20
NOT Current
sehr leichter Niederschlag, geschlossene Wolkendecke
sehr leichter Niederschlag, geschlossene Wolkendecke
 Wind von SSW
Wind: SSW 9 km/h
Temperatur: 10°C
gefühlte Temperatur: 9°C
Taupunkt: 10°C
Luftfeuchte: 100%
Luftdruck: 1011 hPa
Zusammenfassung: sehr leichter Niederschlag
Clouds: geschlossene Wolkendecke
Visibility: 9 km
Cloud details: stark bewölkt 213 m
geschlossene Wolkendecke 335 m
2014/04/30 16:20 EDTD 301620Z 20005KT 9000 -RA BKN007 OVC011 10/10 Q1011 LAST ?
ETGZ - Messstetten, Germany
Distance from station: N 54km
aktuell: 30.09.2013 14:20
NOT Current
geschlossene Wolkendecke
geschlossene Wolkendecke
 Wind von varies
Wind: varies 4 km/h
Temperatur: 8°C
Taupunkt: 7°C
Luftfeuchte: 93%
Luftdruck: 1007 hPa
Clouds: geschlossene Wolkendecke
Visibility: 10 km
Cloud details: geschlossene Wolkendecke 213 m
2013/09/30 12:20 ETGZ 301220Z VRB02KT 9999 OVC007 08/07 Q1007 GRN
LOIH - Hohenems-Dornbir, Austria
Distance from station: SO 57km
aktuell: 19.12.2014 16:00
NOT Current
stark bewölkt
stark bewölkt
 Wind von calm
Wind: Windstill
Temperatur: 10°C
Taupunkt: 9°C
Luftfeuchte: 94%
Luftdruck: 1021 hPa
Clouds: stark bewölkt
Cloud details: teilweise bewölkt 3658 m
stark bewölkt 9144 m
2014/12/19 15:00 LOIH 191500Z 00000KT 35KM SCT120AC BKN300CS 10/09 Q1021 RMK BKN
 
ETHL - Laupheim (ger-Ar, Germany
Distance from station: NO 84km
aktuell: 19.12.2014 23:20
sehr leichter Niederschlag, stark bewölkt
sehr leichter Niederschlag, stark bewölkt
 Wind von WSW
Wind: WSW 22 km/h
Temperatur: 8°C
gefühlte Temperatur: 4°C
Taupunkt: 7°C
Luftfeuchte: 93%
Luftdruck: 1021 hPa
Zusammenfassung: sehr leichter Niederschlag
Clouds: stark bewölkt
Visibility: 10 km
Cloud details: Few Clouds 305 m
teilweise bewölkt 762 m
stark bewölkt 1372 m
2014/12/19 22:20 ETHL 192220Z 25012KT 9999 -RA FEW010 SCT025 BKN045 08/07 Q1021 RERA BLU
EDJA - Memmingen Allgau, Germany
Distance from station: ONO 90km
aktuell: 19.12.2014 21:50
NOT Current
sehr leichter Niederschlag, Mist, stark bewölkt
sehr leichter Niederschlag, Mist, stark bewölkt
 Wind von SW
Wind: SW 30 km/h
Temperatur: 8°C
gefühlte Temperatur: 4°C
Taupunkt: 6°C
Luftfeuchte: 87%
Luftdruck: 1020 hPa
Zusammenfassung: sehr leichter Niederschlag, Mist
Clouds: stark bewölkt
Visibility: 5 km
Cloud details: stark bewölkt 244 m
stark bewölkt 488 m
2014/12/19 20:50 EDJA 192050Z 23016KT 4800 -RA BR BKN008 BKN016 08/06 Q1020
LSME - Emmen, Switzerland
Distance from station: SW 90km
aktuell: 19.12.2014 20:50
NOT Current
sehr leichter Niederschlag, geschlossene Wolkendecke
sehr leichter Niederschlag, geschlossene Wolkendecke
 Wind von varies
Wind: varies 4 km/h
Temperatur: 10°C
Taupunkt: 6°C
Luftfeuchte: 76%
Luftdruck: 1023 hPa
Zusammenfassung: sehr leichter Niederschlag
Clouds: geschlossene Wolkendecke
Visibility: 16 miles
Cloud details: Few Clouds 610 m
teilweise bewölkt 1585 m
geschlossene Wolkendecke 1951 m
2014/12/19 19:50 LSME 191950Z AUTO VRB02KT 9999NDV -RA FEW020 SCT052 OVC064 10/06 Q1023 RMK WHT
 
LSZC - Buochs, Switzerland
Distance from station: SSW 98km
aktuell: 19.12.2014 23:20
sehr leichter Niederschlag, Showers, geschlossene Wolkendecke
sehr leichter Niederschlag, Showers, geschlossene Wolkendecke
 Wind von S
Wind: S 9 km/h
Temperatur: 10°C
gefühlte Temperatur: 9°C
Taupunkt: 5°C
Luftfeuchte: 71%
Luftdruck: 1024 hPa
Zusammenfassung: sehr leichter Niederschlag, Showers
Clouds: geschlossene Wolkendecke
Visibility: 10 km
Cloud details: Few Clouds 1372 m
geschlossene Wolkendecke 1524 m
2014/12/19 22:20 LSZC 192220Z AUTO 18005KT 130V240 9999 -SHRA FEW045 OVC050 10/05 Q1024